createdAt,value
2023-02-05T00:00:02.350Z,98447.78
2023-02-05T00:02:32.245Z,98439.50
2023-02-05T00:04:59.799Z,98439.91
2023-02-05T00:07:27.691Z,98442.00
2023-02-05T00:09:55.163Z,98430.28
2023-02-05T00:12:22.680Z,98427.44
2023-02-05T00:14:50.391Z,98434.66
2023-02-05T00:17:17.905Z,98430.06
2023-02-05T00:19:45.498Z,98424.47
2023-02-05T00:22:12.995Z,98414.81
2023-02-05T00:24:40.520Z,98423.50
2023-02-05T00:27:08.361Z,98421.47
2023-02-05T00:29:36.020Z,98424.91
2023-02-05T00:32:03.742Z,98425.84
2023-02-05T00:34:31.436Z,98427.44
2023-02-05T00:36:58.917Z,98419.22
2023-02-05T00:39:26.372Z,98414.59
2023-02-05T00:41:53.984Z,98407.91
2023-02-05T00:44:21.477Z,98416.81
2023-02-05T00:46:48.893Z,98421.78
2023-02-05T00:49:16.441Z,98422.69
2023-02-05T00:51:43.990Z,98423.59
2023-02-05T00:54:11.639Z,98420.84
2023-02-05T00:56:39.077Z,98424.47
2023-02-05T00:59:06.614Z,98422.47
2023-02-05T01:01:34.163Z,98420.53
2023-02-05T01:04:01.726Z,98422.59
2023-02-05T01:06:29.452Z,98425.44
2023-02-05T01:08:56.967Z,98421.72
2023-02-05T01:11:24.477Z,98423.31
2023-02-05T01:13:51.931Z,98422.16
2023-02-05T01:16:19.577Z,98416.81
2023-02-05T01:18:47.170Z,98422.38
2023-02-05T01:21:14.727Z,98418.88
2023-02-05T01:23:42.269Z,98416.84
2023-02-05T01:26:09.707Z,98413.19
2023-02-05T01:28:37.167Z,98419.13
2023-02-05T01:31:04.800Z,98412.59
2023-02-05T01:33:32.433Z,98413.06
2023-02-05T01:35:59.991Z,98412.53
2023-02-05T01:38:27.425Z,98409.91
2023-02-05T01:40:54.967Z,98408.75
2023-02-05T01:43:22.534Z,98410.59
2023-02-05T01:46:11.171Z,98414.97
2023-02-05T01:48:44.675Z,98423.38
2023-02-05T01:51:15.150Z,98408.34
2023-02-05T01:53:47.283Z,98408.81
2023-02-05T01:56:24.509Z,98406.44
2023-02-05T01:58:57.238Z,98409.38
2023-02-05T02:01:26.932Z,98417.94
2023-02-05T02:03:58.463Z,98411.00
2023-02-05T02:06:26.045Z,98414.31
2023-02-05T02:08:53.853Z,98410.78
2023-02-05T02:11:23.671Z,98406.13
2023-02-05T02:13:55.185Z,98412.03
2023-02-05T02:16:25.216Z,98411.38
2023-02-05T02:18:55.685Z,98406.00
2023-02-05T02:21:51.829Z,98420.00
2023-02-05T02:24:25.030Z,98407.34
2023-02-05T02:27:22.914Z,98412.59
2023-02-05T02:30:04.880Z,98408.78
2023-02-05T02:32:43.966Z,98413.75
2023-02-05T02:35:17.623Z,98413.72
2023-02-05T02:38:08.333Z,98414.47
2023-02-05T02:40:42.801Z,98412.09
2023-02-05T02:43:25.741Z,98413.75
2023-02-05T02:46:01.822Z,98421.09
2023-02-05T02:48:32.552Z,98422.00
2023-02-05T02:51:02.535Z,98390.69
2023-02-05T02:53:36.308Z,98412.44
2023-02-05T02:56:06.014Z,98411.09
2023-02-05T02:58:47.205Z,98432.25
2023-02-05T03:01:17.819Z,98414.78
2023-02-05T03:03:51.816Z,98429.25
2023-02-05T03:06:23.280Z,98417.41
2023-02-05T03:09:07.699Z,98408.72
2023-02-05T03:11:35.366Z,98411.91
2023-02-05T03:14:03.074Z,98415.25
2023-02-05T03:16:35.515Z,98419.22
2023-02-05T03:19:05.794Z,98424.56
2023-02-05T03:21:43.013Z,98411.91
2023-02-05T03:24:11.297Z,98425.16
2023-02-05T03:26:39.036Z,98424.47
2023-02-05T03:29:15.156Z,98431.97
2023-02-05T03:32:05.315Z,98426.50
2023-02-05T03:35:07.472Z,98426.03
2023-02-05T03:38:03.240Z,98423.25
2023-02-05T03:40:34.142Z,98430.81
2023-02-05T03:43:16.223Z,98431.38
2023-02-05T03:46:00.377Z,98422.47
2023-02-05T03:48:48.817Z,98421.03
2023-02-05T03:51:40.403Z,98432.19
2023-02-05T03:54:17.340Z,98430.59
2023-02-05T03:57:23.252Z,98426.88
2023-02-05T03:59:56.288Z,98435.78
2023-02-05T04:02:24.696Z,98427.59
2023-02-05T04:04:54.981Z,98435.72
2023-02-05T04:07:22.674Z,98429.97
2023-02-05T04:09:50.186Z,98426.22
2023-02-05T04:12:17.829Z,98432.59
2023-02-05T04:14:47.516Z,98429.19
2023-02-05T04:17:15.061Z,98440.34
2023-02-05T04:19:43.465Z,98442.09
2023-02-05T04:22:12.889Z,98447.75
2023-02-05T04:24:44.269Z,98450.09
2023-02-05T04:27:11.926Z,98445.78
2023-02-05T04:29:40.032Z,98452.97
2023-02-05T04:32:07.678Z,98452.91
2023-02-05T04:34:35.537Z,98450.41
2023-02-05T04:37:04.202Z,98460.69
2023-02-05T04:39:31.960Z,98461.63
2023-02-05T04:41:59.817Z,98450.31
2023-02-05T04:44:27.383Z,98466.91
2023-02-05T04:46:54.904Z,98453.34
2023-02-05T04:49:22.548Z,98456.44
2023-02-05T04:51:50.123Z,98456.31
2023-02-05T04:54:17.588Z,98446.88
2023-02-05T04:56:45.068Z,98454.09
2023-02-05T04:59:12.540Z,98443.50
2023-02-05T05:01:40.988Z,98449.53
2023-02-05T05:04:09.612Z,98454.13
2023-02-05T05:06:37.067Z,98469.16
2023-02-05T05:09:04.708Z,98453.41
2023-02-05T05:11:32.265Z,98451.47
2023-02-05T05:13:59.704Z,98455.44
2023-02-05T05:16:27.186Z,98451.91
2023-02-05T05:18:54.632Z,98448.53
2023-02-05T05:21:22.271Z,98457.06
2023-02-05T05:23:49.803Z,98462.16
2023-02-05T05:26:17.278Z,98463.78
2023-02-05T05:28:44.767Z,98465.94
2023-02-05T05:31:22.730Z,98464.72
2023-02-05T05:33:51.477Z,98450.34
2023-02-05T05:36:19.262Z,98456.34
2023-02-05T05:38:46.782Z,98455.41
2023-02-05T05:41:39.629Z,98459.88
2023-02-05T05:44:07.399Z,98461.91
2023-02-05T05:46:35.333Z,98462.59
2023-02-05T05:49:03.580Z,98473.31
2023-02-05T05:51:32.841Z,98463.50
2023-02-05T05:54:00.508Z,98467.91
2023-02-05T05:56:28.134Z,98466.59
2023-02-05T05:58:55.694Z,98464.03
2023-02-05T06:01:23.363Z,98459.72
2023-02-05T06:03:50.892Z,98470.03
2023-02-05T06:06:18.512Z,98466.13
2023-02-05T06:08:46.078Z,98466.25
2023-02-05T06:11:13.878Z,98463.56
2023-02-05T06:13:42.129Z,98464.13
2023-02-05T06:16:09.755Z,98461.31
2023-02-05T06:18:37.714Z,98459.63
2023-02-05T06:21:06.201Z,98460.22
2023-02-05T06:23:34.739Z,98452.06
2023-02-05T06:26:02.554Z,98460.47
2023-02-05T06:28:30.060Z,98449.44
2023-02-05T06:30:57.748Z,98448.03
2023-02-05T06:33:25.531Z,98452.97
2023-02-05T06:35:53.161Z,98454.16
2023-02-05T06:38:20.728Z,98450.00
2023-02-05T06:40:49.301Z,98456.88
2023-02-05T06:43:17.022Z,98443.47
2023-02-05T06:45:44.610Z,98432.13
2023-02-05T06:48:12.195Z,98446.97
2023-02-05T06:50:39.706Z,98452.66
2023-02-05T06:53:07.360Z,98437.34
2023-02-05T06:55:35.295Z,98440.72
2023-02-05T06:58:03.241Z,98443.13
2023-02-05T07:00:32.513Z,98443.56
2023-02-05T07:03:00.335Z,98450.38
2023-02-05T07:05:28.020Z,98449.53
2023-02-05T07:07:55.626Z,98444.25
2023-02-05T07:10:23.290Z,98437.72
2023-02-05T07:12:50.792Z,98438.06
2023-02-05T07:15:18.279Z,98444.50
2023-02-05T07:17:45.788Z,98441.47
2023-02-05T07:20:13.283Z,98431.25
2023-02-05T07:22:40.826Z,98434.63
2023-02-05T07:25:08.920Z,98436.31
2023-02-05T07:27:36.400Z,98435.09
2023-02-05T07:30:04.318Z,98439.34
2023-02-05T07:32:32.005Z,98430.53
2023-02-05T07:34:59.483Z,98437.97
2023-02-05T07:37:27.120Z,98441.94
2023-02-05T07:39:54.631Z,98438.09
2023-02-05T07:42:22.220Z,98433.56
2023-02-05T07:44:56.420Z,98434.03
2023-02-05T07:47:23.907Z,98424.78
2023-02-05T07:49:51.435Z,98426.19
2023-02-05T07:52:18.980Z,98434.50
2023-02-05T07:54:46.465Z,98445.94
2023-02-05T07:57:14.004Z,98436.81
2023-02-05T07:59:41.540Z,98430.59
2023-02-05T08:02:11.788Z,98435.97
2023-02-05T08:04:39.411Z,98438.59
2023-02-05T08:07:07.064Z,98435.63
2023-02-05T08:09:34.641Z,98428.94
2023-02-05T08:12:02.102Z,98434.56
2023-02-05T08:14:31.463Z,98433.84
2023-02-05T08:16:59.755Z,98434.22
2023-02-05T08:19:27.286Z,98433.19
2023-02-05T08:21:54.801Z,98428.22
2023-02-05T08:24:22.311Z,98432.91
2023-02-05T08:26:49.762Z,98431.94
2023-02-05T08:29:17.271Z,98435.94
2023-02-05T08:31:44.798Z,98437.84
2023-02-05T08:34:12.425Z,98437.19
2023-02-05T08:36:40.214Z,98439.50
2023-02-05T08:39:07.836Z,98420.00
2023-02-05T08:41:37.151Z,98428.13
2023-02-05T08:44:04.981Z,98410.06
2023-02-05T08:46:47.556Z,98422.97
2023-02-05T08:49:17.737Z,98422.59
2023-02-05T08:51:45.428Z,98423.66
2023-02-05T08:54:13.602Z,98424.28
2023-02-05T08:56:43.577Z,98418.53
2023-02-05T08:59:12.109Z,98413.91
2023-02-05T09:01:43.299Z,98417.91
2023-02-05T09:04:19.225Z,98414.25
2023-02-05T09:06:47.253Z,98407.00
2023-02-05T09:09:15.248Z,98405.63
2023-02-05T09:11:43.097Z,98408.16
2023-02-05T09:14:10.925Z,98412.53
2023-02-05T09:16:38.665Z,98407.13
2023-02-05T09:19:06.612Z,98416.91
2023-02-05T09:21:34.620Z,98413.47
2023-02-05T09:24:02.164Z,98411.91
2023-02-05T09:26:29.584Z,98403.91
2023-02-05T09:28:58.314Z,98410.94
2023-02-05T09:31:25.936Z,98412.41
2023-02-05T09:33:53.460Z,98405.75
2023-02-05T09:36:23.033Z,98395.00
2023-02-05T09:38:59.168Z,98410.53
2023-02-05T09:41:47.981Z,98403.41
2023-02-05T09:44:50.699Z,98411.03
2023-02-05T09:47:33.195Z,98403.75
2023-02-05T09:50:15.546Z,98394.34
2023-02-05T09:52:48.033Z,98407.28
2023-02-05T09:55:15.427Z,98403.56
2023-02-05T09:57:43.568Z,98407.06
2023-02-05T10:00:34.100Z,98408.53
2023-02-05T10:03:18.202Z,98399.94
2023-02-05T10:06:10.640Z,98399.66
2023-02-05T10:08:57.428Z,98397.56
2023-02-05T10:11:52.551Z,98389.69
2023-02-05T10:14:35.980Z,98406.66
2023-02-05T10:17:09.399Z,98405.44
2023-02-05T10:19:48.708Z,98411.94
2023-02-05T10:22:34.906Z,98410.25
2023-02-05T10:25:30.215Z,98404.72
2023-02-05T10:28:05.272Z,98406.41
2023-02-05T10:30:53.011Z,98406.19
2023-02-05T10:33:43.653Z,98408.09
2023-02-05T10:36:12.879Z,98411.59
2023-02-05T10:38:46.136Z,98402.50
2023-02-05T10:41:26.589Z,98417.09
2023-02-05T10:44:17.303Z,98412.06
2023-02-05T10:46:53.412Z,98407.19
2023-02-05T10:49:27.719Z,98411.44
2023-02-05T10:51:55.495Z,98388.75
2023-02-05T10:54:31.714Z,98405.34
2023-02-05T10:57:00.196Z,98414.47
2023-02-05T10:59:30.978Z,98417.94
2023-02-05T11:02:03.378Z,98420.34
2023-02-05T11:04:39.864Z,98410.53
2023-02-05T11:07:14.004Z,98409.69
2023-02-05T11:09:41.877Z,98417.47
2023-02-05T11:12:23.147Z,98407.91
2023-02-05T11:14:59.320Z,98390.81
2023-02-05T11:17:43.641Z,98403.78
2023-02-05T11:20:17.327Z,98402.75
2023-02-05T11:22:48.767Z,98408.41
2023-02-05T11:25:49.848Z,98389.38
2023-02-05T11:28:32.776Z,98408.53
2023-02-05T11:31:21.453Z,98401.91
2023-02-05T11:34:05.958Z,98404.19
2023-02-05T11:36:50.880Z,98410.41
2023-02-05T11:39:40.495Z,98398.81
2023-02-05T11:42:16.661Z,98395.41
2023-02-05T11:44:52.257Z,98400.66
2023-02-05T11:47:36.217Z,98393.53
2023-02-05T11:50:06.217Z,98392.34
2023-02-05T11:52:37.765Z,98401.63
2023-02-05T11:55:06.801Z,98400.34
2023-02-05T11:57:38.858Z,98384.84
2023-02-05T12:00:09.423Z,98404.38
2023-02-05T12:02:38.830Z,98394.88
2023-02-05T12:05:12.636Z,98408.13
2023-02-05T12:07:58.857Z,98405.50
2023-02-05T12:10:52.664Z,98414.81
2023-02-05T12:13:38.973Z,98413.78
2023-02-05T12:16:19.996Z,98406.44
2023-02-05T12:19:21.134Z,98399.03
2023-02-05T12:22:02.718Z,98404.88
2023-02-05T12:24:47.896Z,98409.88
2023-02-05T12:28:00.488Z,98408.00
2023-02-05T12:30:58.400Z,98408.53
2023-02-05T12:33:54.428Z,98399.31
2023-02-05T12:36:22.191Z,98404.09
2023-02-05T12:39:11.230Z,98402.50
2023-02-05T12:41:56.743Z,98416.00
2023-02-05T12:44:24.379Z,98408.84
2023-02-05T12:47:06.296Z,98399.34
2023-02-05T12:49:54.888Z,98415.75
2023-02-05T12:52:38.939Z,98406.22
2023-02-05T12:55:14.808Z,98418.09
2023-02-05T12:57:49.408Z,98408.31
2023-02-05T13:00:33.218Z,98400.38
2023-02-05T13:03:18.956Z,98411.22
2023-02-05T13:05:52.598Z,98408.53
2023-02-05T13:08:49.426Z,98413.31
2023-02-05T13:11:42.173Z,98414.63
2023-02-05T13:14:14.833Z,98405.88
2023-02-05T13:17:05.370Z,98408.78
2023-02-05T13:19:41.419Z,98409.84
2023-02-05T13:22:37.318Z,98413.53
2023-02-05T13:26:00.955Z,98412.78
2023-02-05T13:28:43.495Z,98418.56
2023-02-05T13:31:29.779Z,98411.13
2023-02-05T13:34:03.963Z,98425.69
2023-02-05T13:37:02.357Z,98421.72
2023-02-05T13:39:48.636Z,98420.09
2023-02-05T13:42:19.098Z,98415.03
2023-02-05T13:45:05.354Z,98420.66
2023-02-05T13:47:57.234Z,98409.81
2023-02-05T13:50:33.948Z,98408.78
2023-02-05T13:53:38.842Z,98413.06
2023-02-05T13:56:47.627Z,98415.22
2023-02-05T13:59:23.850Z,98410.72
2023-02-05T14:01:56.536Z,98406.22
2023-02-05T14:04:55.090Z,98410.44
2023-02-05T14:07:30.049Z,98401.97
2023-02-05T14:10:01.409Z,98419.97
2023-02-05T14:12:41.050Z,98404.34
2023-02-05T14:15:20.344Z,98416.00
2023-02-05T14:17:47.865Z,98412.56
2023-02-05T14:20:44.923Z,98411.78
2023-02-05T14:23:37.920Z,98415.19
2023-02-05T14:26:08.671Z,98417.31
2023-02-05T14:28:44.479Z,98412.31
2023-02-05T14:31:49.388Z,98418.91
2023-02-05T14:34:45.411Z,98413.34
2023-02-05T14:37:32.668Z,98420.22
2023-02-05T14:40:27.386Z,98418.38
2023-02-05T14:43:15.856Z,98417.84
2023-02-05T14:45:54.209Z,98399.88
2023-02-05T14:48:45.744Z,98404.63
2023-02-05T14:51:28.230Z,98406.22
2023-02-05T14:54:02.360Z,98411.78
2023-02-05T14:56:49.161Z,98408.59
2023-02-05T14:59:57.083Z,98415.19
2023-02-05T15:06:42.965Z,98371.81
2023-02-05T15:09:34.522Z,98403.84
2023-02-05T15:12:23.388Z,98409.13
2023-02-05T15:15:00.882Z,98417.59
2023-02-05T15:17:35.617Z,98410.16
2023-02-05T15:20:21.507Z,98405.66
2023-02-05T15:23:01.156Z,98409.91
2023-02-05T15:26:16.164Z,98406.19
2023-02-05T15:29:20.760Z,98414.41
2023-02-05T15:32:29.956Z,98398.00
2023-02-05T15:35:05.495Z,98407.78
2023-02-05T15:37:41.348Z,98402.25
2023-02-05T15:40:33.859Z,98384.75
2023-02-05T15:43:12.500Z,98417.06
2023-02-05T15:45:45.281Z,98412.53
2023-02-05T15:48:25.154Z,98411.50
2023-02-05T15:51:03.269Z,98416.00
2023-02-05T15:53:37.540Z,98413.34
2023-02-05T15:56:29.967Z,98408.88
2023-02-05T15:59:02.320Z,98410.69
2023-02-05T16:01:36.772Z,98416.00
2023-02-05T16:04:18.181Z,98417.03
2023-02-05T16:06:45.952Z,98417.84
2023-02-05T16:09:25.381Z,98415.69
2023-02-05T16:12:25.659Z,98414.34
2023-02-05T16:15:01.800Z,98429.44
2023-02-05T16:17:36.588Z,98431.81
2023-02-05T16:20:36.629Z,98425.13
2023-02-05T16:23:36.781Z,98419.56
2023-02-05T16:26:15.645Z,98426.41
2023-02-05T16:28:54.686Z,98429.31
2023-02-05T16:31:25.644Z,98418.44
2023-02-05T16:33:55.583Z,98419.22
2023-02-05T16:36:26.115Z,98419.16
2023-02-05T16:39:15.176Z,98417.25
2023-02-05T16:42:26.912Z,98418.53
2023-02-05T16:45:11.095Z,98410.81
2023-02-05T16:47:38.856Z,98421.09
2023-02-05T16:50:44.792Z,98417.34
2023-02-05T16:53:21.325Z,98414.13
2023-02-05T16:55:50.307Z,98414.13
2023-02-05T16:58:24.050Z,98398.22
2023-02-05T17:00:57.763Z,98418.88
2023-02-05T17:03:28.389Z,98412.19
2023-02-05T17:06:00.439Z,98416.13
2023-02-05T17:08:37.502Z,98412.63
2023-02-05T17:11:07.749Z,98420.31
2023-02-05T17:13:42.311Z,98412.56
2023-02-05T17:16:18.974Z,98416.47
2023-02-05T17:19:01.354Z,98407.19
2023-02-05T17:21:34.378Z,98416.72
2023-02-05T17:24:05.357Z,98419.66
2023-02-05T17:26:35.351Z,98415.88
2023-02-05T17:29:07.470Z,98410.00
2023-02-05T17:31:42.550Z,98413.13
2023-02-05T17:34:12.212Z,98394.16
2023-02-05T17:36:39.994Z,98413.59
2023-02-05T17:39:07.544Z,98408.53
2023-02-05T17:41:58.458Z,98403.75
2023-02-05T17:44:37.144Z,98404.75
2023-02-05T17:47:06.903Z,98410.84
2023-02-05T17:49:34.418Z,98401.31
2023-02-05T17:52:02.084Z,98401.31
2023-02-05T17:54:51.388Z,98412.38
2023-02-05T17:57:24.756Z,98405.22
2023-02-05T17:59:52.509Z,98404.94
2023-02-05T18:02:22.965Z,98396.41
2023-02-05T18:04:50.732Z,98396.91
2023-02-05T18:07:36.034Z,98383.91
2023-02-05T18:10:06.157Z,98404.03
2023-02-05T18:12:34.305Z,98395.84
2023-02-05T18:15:01.872Z,98394.03
2023-02-05T18:17:31.164Z,98406.69
2023-02-05T18:19:58.718Z,98393.41
2023-02-05T18:22:26.763Z,98417.63
2023-02-05T18:24:54.412Z,98407.47
2023-02-05T18:27:22.032Z,98402.16
2023-02-05T18:29:49.592Z,98393.19
2023-02-05T18:32:17.188Z,98401.09
2023-02-05T18:34:44.675Z,98398.44
2023-02-05T18:37:14.404Z,98406.13
2023-02-05T18:39:43.946Z,98398.16
2023-02-05T18:42:13.096Z,98410.38
2023-02-05T18:44:43.243Z,98398.94
2023-02-05T18:47:11.716Z,98405.84
2023-02-05T18:49:39.273Z,98404.81
2023-02-05T18:52:07.475Z,98410.38
2023-02-05T18:54:35.069Z,98407.16
2023-02-05T18:57:02.790Z,98407.44
2023-02-05T18:59:30.237Z,98405.06
2023-02-05T19:01:57.816Z,98403.47
2023-02-05T19:04:27.195Z,98413.31
2023-02-05T19:06:55.198Z,98414.31
2023-02-05T19:09:25.433Z,98413.78
2023-02-05T19:11:54.825Z,98411.66
2023-02-05T19:14:24.383Z,98403.97
2023-02-05T19:16:53.316Z,98401.31
2023-02-05T19:19:26.285Z,98415.06
2023-02-05T19:22:02.224Z,98414.06
2023-02-05T19:24:29.996Z,98411.19
2023-02-05T19:26:59.298Z,98413.56
2023-02-05T19:29:27.700Z,98412.00
2023-02-05T19:31:57.515Z,98392.44
2023-02-05T19:34:27.953Z,98411.56
2023-02-05T19:36:55.511Z,98405.16
2023-02-05T19:39:23.158Z,98417.88
2023-02-05T19:41:52.246Z,98413.38
2023-02-05T19:44:20.182Z,98414.66
2023-02-05T19:46:49.123Z,98413.66
2023-02-05T19:49:19.749Z,98416.22
2023-02-05T19:51:49.727Z,98405.41
2023-02-05T19:54:21.152Z,98409.13
2023-02-05T19:56:49.810Z,98414.66
2023-02-05T19:59:17.502Z,98410.91
2023-02-05T20:01:45.993Z,98406.19
2023-02-05T20:04:17.596Z,98404.81
2023-02-05T20:06:46.900Z,98383.78
2023-02-05T20:09:16.358Z,98394.81
2023-02-05T20:11:46.627Z,98399.00
2023-02-05T20:14:15.012Z,98393.19
2023-02-05T20:16:45.392Z,98403.19
2023-02-05T20:19:15.690Z,98407.72
2023-02-05T20:21:43.823Z,98404.03
2023-02-05T20:24:11.679Z,98401.09
2023-02-05T20:26:39.823Z,98409.06
2023-02-05T20:29:26.952Z,98402.16
2023-02-05T20:31:55.263Z,98396.63
2023-02-05T20:34:26.138Z,98397.63
2023-02-05T20:37:04.539Z,98392.84
2023-02-05T20:39:35.088Z,98397.38
2023-02-05T20:42:03.105Z,98386.81
2023-02-05T20:44:36.533Z,98399.22
2023-02-05T20:47:06.131Z,98394.19
2023-02-05T20:49:40.458Z,98387.53
2023-02-05T20:52:09.377Z,98392.59
2023-02-05T20:54:36.947Z,98382.66
2023-02-05T20:57:04.763Z,98392.13
2023-02-05T20:59:33.439Z,98393.72
2023-02-05T21:02:02.921Z,98393.72
2023-02-05T21:04:30.865Z,98392.16
2023-02-05T21:06:58.796Z,98391.59
2023-02-05T21:09:26.373Z,98378.38
2023-02-05T21:11:55.820Z,98390.53
2023-02-05T21:14:24.035Z,98382.56
2023-02-05T21:16:51.656Z,98378.31
2023-02-05T21:19:19.686Z,98387.59
2023-02-05T21:21:47.261Z,98378.53
2023-02-05T21:24:15.711Z,98380.41
2023-02-05T21:26:48.974Z,98384.31
2023-02-05T21:29:19.676Z,98387.50
2023-02-05T21:31:53.400Z,98365.03
2023-02-05T21:34:23.677Z,98403.44
2023-02-05T21:36:51.810Z,98396.53
2023-02-05T21:39:22.406Z,98394.94
2023-02-05T21:41:54.504Z,98393.13
2023-02-05T21:44:22.532Z,98390.41
2023-02-05T21:46:50.170Z,98385.38
2023-02-05T21:49:17.750Z,98392.00
2023-02-05T21:51:45.303Z,98384.53
2023-02-05T21:54:12.801Z,98393.53
2023-02-05T21:56:44.193Z,98396.63
2023-02-05T21:59:13.272Z,98398.50
2023-02-05T22:01:42.738Z,98397.41
2023-02-05T22:04:16.180Z,98402.16
2023-02-05T22:06:44.569Z,98395.78
2023-02-05T22:09:14.397Z,98393.91
2023-02-05T22:11:42.677Z,98402.13
2023-02-05T22:14:11.072Z,98410.56
2023-02-05T22:16:38.943Z,98406.06
2023-02-05T22:19:07.292Z,98413.47
2023-02-05T22:21:40.749Z,98407.00
2023-02-05T22:24:11.370Z,98418.75
2023-02-05T22:26:39.721Z,98413.13
2023-02-05T22:29:09.010Z,98412.84
2023-02-05T22:31:36.813Z,98403.84
2023-02-05T22:34:05.062Z,98412.84
2023-02-05T22:36:34.280Z,98412.84
2023-02-05T22:39:02.649Z,98407.59
2023-02-05T22:41:36.499Z,98412.31
2023-02-05T22:44:05.722Z,98408.59
2023-02-05T22:46:36.145Z,98412.06
2023-02-05T22:49:04.114Z,98416.09
2023-02-05T22:51:34.849Z,98413.97
2023-02-05T22:54:03.287Z,98409.47
2023-02-05T22:56:30.989Z,98407.88
2023-02-05T22:59:01.377Z,98414.25
2023-02-05T23:01:33.549Z,98406.00
2023-02-05T23:04:03.328Z,98399.69
2023-02-05T23:06:36.875Z,98402.56
2023-02-05T23:09:12.422Z,98402.84
2023-02-05T23:11:40.389Z,98408.78
2023-02-05T23:14:08.693Z,98401.38
2023-02-05T23:16:40.711Z,98407.47
2023-02-05T23:19:11.894Z,98401.16
2023-02-05T23:21:40.854Z,98402.84
2023-02-05T23:24:09.450Z,98398.38
2023-02-05T23:26:42.142Z,98394.88
2023-02-05T23:29:12.651Z,98404.16
2023-02-05T23:31:41.014Z,98395.16
2023-02-05T23:34:08.732Z,98397.75
2023-02-05T23:36:36.707Z,98399.91
2023-02-05T23:39:04.818Z,98402.78
2023-02-05T23:41:38.241Z,98406.25
2023-02-05T23:44:12.165Z,98405.63
2023-02-05T23:46:40.512Z,98402.06
2023-02-05T23:49:08.351Z,98409.34
2023-02-05T23:51:36.607Z,98411.28
2023-02-05T23:54:05.715Z,98406.47
2023-02-05T23:56:33.618Z,98414.22
2023-02-05T23:59:01.954Z,98410.50
